sensor_id;sensor_type;location;lat;lon;timestamp;pressure;altitude;pressure_sealevel;temperature;humidity
6150;BME280;3106;42.670;23.318;2023-06-14T00:01:41;94204.69;;;17.27;100.00
6150;BME280;3106;42.670;23.318;2023-06-14T00:04:11;94203.56;;;17.35;100.00
6150;BME280;3106;42.670;23.318;2023-06-14T00:06:38;94201.25;;;17.33;100.00
6150;BME280;3106;42.670;23.318;2023-06-14T00:09:06;94210.13;;;17.34;100.00
6150;BME280;3106;42.670;23.318;2023-06-14T00:11:33;94200.44;;;17.26;100.00
6150;BME280;3106;42.670;23.318;2023-06-14T00:14:00;94193.50;;;17.28;100.00
6150;BME280;3106;42.670;23.318;2023-06-14T00:16:30;94193.50;;;17.32;100.00
6150;BME280;3106;42.670;23.318;2023-06-14T00:18:58;94192.75;;;17.35;100.00
6150;BME280;3106;42.670;23.318;2023-06-14T00:21:25;94187.34;;;17.35;100.00
6150;BME280;3106;42.670;23.318;2023-06-14T00:23:55;94183.09;;;17.41;100.00
6150;BME280;3106;42.670;23.318;2023-06-14T00:26:21;94184.25;;;17.36;100.00
6150;BME280;3106;42.670;23.318;2023-06-14T00:28:48;94186.97;;;17.33;100.00
6150;BME280;3106;42.670;23.318;2023-06-14T00:31:15;94196.59;;;17.30;100.00
6150;BME280;3106;42.670;23.318;2023-06-14T00:33:43;94191.97;;;17.24;100.00
6150;BME280;3106;42.670;23.318;2023-06-14T00:36:10;94183.88;;;17.20;100.00
6150;BME280;3106;42.670;23.318;2023-06-14T00:38:37;94185.41;;;17.32;100.00
6150;BME280;3106;42.670;23.318;2023-06-14T00:41:03;94187.34;;;17.35;100.00
6150;BME280;3106;42.670;23.318;2023-06-14T00:43:30;94177.31;;;17.35;100.00
6150;BME280;3106;42.670;23.318;2023-06-14T00:45:57;94175.34;;;17.39;100.00
6150;BME280;3106;42.670;23.318;2023-06-14T00:48:24;94176.16;;;17.33;100.00
6150;BME280;3106;42.670;23.318;2023-06-14T00:50:52;94170.31;;;17.31;100.00
6150;BME280;3106;42.670;23.318;2023-06-14T00:53:19;94170.34;;;17.34;100.00
6150;BME280;3106;42.670;23.318;2023-06-14T00:55:48;94174.22;;;17.37;100.00
6150;BME280;3106;42.670;23.318;2023-06-14T00:58:15;94164.94;;;17.27;100.00
6150;BME280;3106;42.670;23.318;2023-06-14T01:00:42;94168.03;;;17.26;100.00
6150;BME280;3106;42.670;23.318;2023-06-14T01:03:09;94172.25;;;17.27;100.00
6150;BME280;3106;42.670;23.318;2023-06-14T01:05:38;94161.84;;;17.25;100.00
6150;BME280;3106;42.670;23.318;2023-06-14T01:08:19;94164.97;;;17.20;100.00
6150;BME280;3106;42.670;23.318;2023-06-14T01:10:55;94172.69;;;17.15;100.00
6150;BME280;3106;42.670;23.318;2023-06-14T01:13:25;94175.38;;;17.11;100.00
6150;BME280;3106;42.670;23.318;2023-06-14T01:15:55;94164.59;;;17.08;100.00
6150;BME280;3106;42.670;23.318;2023-06-14T01:18:22;94164.19;;;17.09;100.00
6150;BME280;3106;42.670;23.318;2023-06-14T01:20:49;94168.06;;;17.08;100.00
6150;BME280;3106;42.670;23.318;2023-06-14T01:23:22;94168.84;;;17.09;100.00
6150;BME280;3106;42.670;23.318;2023-06-14T01:25:49;94168.84;;;17.02;100.00
6150;BME280;3106;42.670;23.318;2023-06-14T01:28:20;94171.13;;;17.10;100.00
6150;BME280;3106;42.670;23.318;2023-06-14T01:30:49;94171.50;;;17.12;100.00
6150;BME280;3106;42.670;23.318;2023-06-14T01:33:20;94169.97;;;17.15;100.00
6150;BME280;3106;42.670;23.318;2023-06-14T01:35:49;94175.00;;;17.23;100.00
6150;BME280;3106;42.670;23.318;2023-06-14T01:38:17;94163.78;;;17.28;100.00
6150;BME280;3106;42.670;23.318;2023-06-14T01:40:48;94164.56;;;17.39;100.00
6150;BME280;3106;42.670;23.318;2023-06-14T01:43:16;94161.84;;;17.39;100.00
6150;BME280;3106;42.670;23.318;2023-06-14T01:45:45;94167.25;;;17.43;100.00
6150;BME280;3106;42.670;23.318;2023-06-14T01:48:14;94164.94;;;17.45;100.00
6150;BME280;3106;42.670;23.318;2023-06-14T01:50:41;94163.78;;;17.46;100.00
6150;BME280;3106;42.670;23.318;2023-06-14T01:53:08;94163.34;;;17.51;100.00
6150;BME280;3106;42.670;23.318;2023-06-14T01:55:35;94169.56;;;17.48;100.00
6150;BME280;3106;42.670;23.318;2023-06-14T01:58:04;94164.16;;;17.48;100.00
6150;BME280;3106;42.670;23.318;2023-06-14T02:00:31;94177.28;;;17.28;100.00
6150;BME280;3106;42.670;23.318;2023-06-14T02:02:58;94180.78;;;17.22;100.00
6150;BME280;3106;42.670;23.318;2023-06-14T02:05:25;94177.34;;;17.14;100.00
6150;BME280;3106;42.670;23.318;2023-06-14T02:07:52;94180.41;;;17.09;100.00
6150;BME280;3106;42.670;23.318;2023-06-14T02:10:19;94183.50;;;17.01;100.00
6150;BME280;3106;42.670;23.318;2023-06-14T02:12:46;94183.88;;;16.99;100.00
6150;BME280;3106;42.670;23.318;2023-06-14T02:15:14;94195.47;;;16.93;100.00
6150;BME280;3106;42.670;23.318;2023-06-14T02:17:45;94195.47;;;16.89;100.00
6150;BME280;3106;42.670;23.318;2023-06-14T02:20:12;94195.47;;;16.86;100.00
6150;BME280;3106;42.670;23.318;2023-06-14T02:22:40;94192.78;;;16.82;100.00
6150;BME280;3106;42.670;23.318;2023-06-14T02:25:07;94200.09;;;16.82;100.00
6150;BME280;3106;42.670;23.318;2023-06-14T02:27:34;94209.38;;;16.77;100.00
6150;BME280;3106;42.670;23.318;2023-06-14T02:30:01;94207.81;;;16.73;100.00
6150;BME280;3106;42.670;23.318;2023-06-14T02:32:29;94203.56;;;16.68;100.00
6150;BME280;3106;42.670;23.318;2023-06-14T02:34:55;94207.44;;;16.64;100.00
6150;BME280;3106;42.670;23.318;2023-06-14T02:37:22;94203.56;;;16.62;100.00
6150;BME280;3106;42.670;23.318;2023-06-14T02:39:49;94209.38;;;16.67;100.00
6150;BME280;3106;42.670;23.318;2023-06-14T02:42:16;94203.56;;;16.72;100.00
6150;BME280;3106;42.670;23.318;2023-06-14T02:44:42;94203.19;;;16.70;100.00
6150;BME280;3106;42.670;23.318;2023-06-14T02:47:10;94205.09;;;16.76;100.00
6150;BME280;3106;42.670;23.318;2023-06-14T02:49:38;94194.31;;;16.73;100.00
6150;BME280;3106;42.670;23.318;2023-06-14T02:52:05;94198.19;;;16.72;100.00
6150;BME280;3106;42.670;23.318;2023-06-14T02:54:34;94202.81;;;16.75;100.00
6150;BME280;3106;42.670;23.318;2023-06-14T02:57:01;94197.78;;;16.77;100.00
6150;BME280;3106;42.670;23.318;2023-06-14T02:59:28;94203.19;;;16.73;100.00
6150;BME280;3106;42.670;23.318;2023-06-14T03:01:55;94200.47;;;16.73;100.00
6150;BME280;3106;42.670;23.318;2023-06-14T03:04:22;94203.53;;;16.58;100.00
6150;BME280;3106;42.670;23.318;2023-06-14T03:06:52;94217.03;;;16.58;100.00
6150;BME280;3106;42.670;23.318;2023-06-14T03:09:19;94218.22;;;16.74;100.00
6150;BME280;3106;42.670;23.318;2023-06-14T03:11:46;94210.53;;;16.83;100.00
6150;BME280;3106;42.670;23.318;2023-06-14T03:14:13;94217.44;;;16.95;100.00
6150;BME280;3106;42.670;23.318;2023-06-14T03:16:40;94222.09;;;17.01;100.00
6150;BME280;3106;42.670;23.318;2023-06-14T03:19:08;94217.84;;;17.04;100.00
6150;BME280;3106;42.670;23.318;2023-06-14T03:21:34;94221.31;;;17.11;100.00
6150;BME280;3106;42.670;23.318;2023-06-14T03:24:03;94221.31;;;17.15;100.00
6150;BME280;3106;42.670;23.318;2023-06-14T03:26:30;94210.88;;;17.24;100.00
6150;BME280;3106;42.670;23.318;2023-06-14T03:28:59;94220.13;;;17.30;100.00
6150;BME280;3106;42.670;23.318;2023-06-14T03:31:26;94219.75;;;17.21;100.00
6150;BME280;3106;42.670;23.318;2023-06-14T03:33:58;94217.84;;;17.00;100.00
6150;BME280;3106;42.670;23.318;2023-06-14T03:36:25;94225.19;;;17.00;100.00
6150;BME280;3106;42.670;23.318;2023-06-14T03:38:51;94226.31;;;17.02;100.00
6150;BME280;3106;42.670;23.318;2023-06-14T03:41:19;94224.41;;;16.96;100.00
6150;BME280;3106;42.670;23.318;2023-06-14T03:43:46;94225.19;;;16.96;100.00
6150;BME280;3106;42.670;23.318;2023-06-14T03:46:13;94230.19;;;16.91;100.00
6150;BME280;3106;42.670;23.318;2023-06-14T03:48:39;94231.34;;;16.90;100.00
6150;BME280;3106;42.670;23.318;2023-06-14T03:51:06;94225.19;;;16.96;100.00
6150;BME280;3106;42.670;23.318;2023-06-14T03:53:33;94225.97;;;16.97;100.00
6150;BME280;3106;42.670;23.318;2023-06-14T03:56:01;94234.03;;;16.90;100.00
6150;BME280;3106;42.670;23.318;2023-06-14T03:58:29;94230.59;;;16.89;100.00
6150;BME280;3106;42.670;23.318;2023-06-14T04:00:56;94230.56;;;17.03;100.00
6150;BME280;3106;42.670;23.318;2023-06-14T04:03:22;94224.78;;;17.08;100.00
6150;BME280;3106;42.670;23.318;2023-06-14T04:05:50;94237.53;;;17.25;100.00
6150;BME280;3106;42.670;23.318;2023-06-14T04:08:17;94233.28;;;17.24;100.00
6150;BME280;3106;42.670;23.318;2023-06-14T04:10:44;94234.03;;;17.32;100.00
6150;BME280;3106;42.670;23.318;2023-06-14T04:13:11;94230.56;;;17.38;100.00
6150;BME280;3106;42.670;23.318;2023-06-14T04:15:40;94231.31;;;17.49;100.00
6150;BME280;3106;42.670;23.318;2023-06-14T04:18:09;94228.19;;;17.65;100.00
6150;BME280;3106;42.670;23.318;2023-06-14T04:20:35;94222.78;;;17.72;100.00
6150;BME280;3106;42.670;23.318;2023-06-14T04:23:11;94221.97;;;17.82;100.00
6150;BME280;3106;42.670;23.318;2023-06-14T04:25:38;94231.19;;;17.95;100.00
6150;BME280;3106;42.670;23.318;2023-06-14T04:28:05;94232.28;;;18.15;100.00
6150;BME280;3106;42.670;23.318;2023-06-14T04:30:34;94219.41;;;18.39;100.00
6150;BME280;3106;42.670;23.318;2023-06-14T04:33:05;94223.13;;;18.66;100.00
6150;BME280;3106;42.670;23.318;2023-06-14T04:35:32;94218.44;;;18.74;100.00
6150;BME280;3106;42.670;23.318;2023-06-14T04:38:01;94222.28;;;18.76;100.00
6150;BME280;3106;42.670;23.318;2023-06-14T04:40:30;94219.19;;;18.78;100.00
6150;BME280;3106;42.670;23.318;2023-06-14T04:42:56;94226.44;;;18.88;100.00
6150;BME280;3106;42.670;23.318;2023-06-14T04:45:23;94222.13;;;18.94;100.00
6150;BME280;3106;42.670;23.318;2023-06-14T04:47:58;94229.44;;;19.04;100.00
6150;BME280;3106;42.670;23.318;2023-06-14T04:50:26;94224.94;;;19.34;100.00
6150;BME280;3106;42.670;23.318;2023-06-14T04:52:55;94224.03;;;19.48;100.00
6150;BME280;3106;42.670;23.318;2023-06-14T04:55:22;94229.09;;;19.46;100.00
6150;BME280;3106;42.670;23.318;2023-06-14T04:57:50;94227.78;;;19.61;100.00
6150;BME280;3106;42.670;23.318;2023-06-14T05:00:19;94226.09;;;19.74;100.00
6150;BME280;3106;42.670;23.318;2023-06-14T05:02:46;94237.59;;;19.88;100.00
6150;BME280;3106;42.670;23.318;2023-06-14T05:05:16;94239.75;;;20.00;100.00
6150;BME280;3106;42.670;23.318;2023-06-14T05:07:44;94244.16;;;20.24;100.00
6150;BME280;3106;42.670;23.318;2023-06-14T05:10:11;94244.66;;;20.45;100.00
6150;BME280;3106;42.670;23.318;2023-06-14T05:12:38;94241.41;;;20.57;100.00
6150;BME280;3106;42.670;23.318;2023-06-14T05:15:06;94243.28;;;20.60;99.77
6150;BME280;3106;42.670;23.318;2023-06-14T05:17:34;94239.84;;;20.56;99.12
6150;BME280;3106;42.670;23.318;2023-06-14T05:20:01;94243.03;;;20.51;98.88
6150;BME280;3106;42.670;23.318;2023-06-14T05:22:28;94251.19;;;20.51;99.55
6150;BME280;3106;42.670;23.318;2023-06-14T05:24:56;94249.41;;;20.38;98.53
6150;BME280;3106;42.670;23.318;2023-06-14T05:27:23;94251.34;;;20.37;99.08
6150;BME280;3106;42.670;23.318;2023-06-14T05:29:51;94251.13;;;20.25;99.69
6150;BME280;3106;42.670;23.318;2023-06-14T05:32:21;94263.53;;;20.26;100.00
6150;BME280;3106;42.670;23.318;2023-06-14T05:34:47;94265.94;;;20.50;100.00
6150;BME280;3106;42.670;23.318;2023-06-14T05:37:14;94262.06;;;20.78;98.82
6150;BME280;3106;42.670;23.318;2023-06-14T05:39:41;94262.19;;;20.97;98.41
6150;BME280;3106;42.670;23.318;2023-06-14T05:42:09;94255.09;;;21.30;96.41
6150;BME280;3106;42.670;23.318;2023-06-14T05:44:36;94255.88;;;21.53;95.57
6150;BME280;3106;42.670;23.318;2023-06-14T05:47:03;94265.84;;;21.63;94.27
6150;BME280;3106;42.670;23.318;2023-06-14T05:49:30;94265.59;;;21.96;93.76
6150;BME280;3106;42.670;23.318;2023-06-14T05:51:56;94267.78;;;22.05;92.37
6150;BME280;3106;42.670;23.318;2023-06-14T05:54:23;94268.66;;;21.56;93.48
6150;BME280;3106;42.670;23.318;2023-06-14T05:56:50;94264.66;;;21.60;93.34
6150;BME280;3106;42.670;23.318;2023-06-14T05:59:18;94264.44;;;21.51;93.63
6150;BME280;3106;42.670;23.318;2023-06-14T06:01:45;94261.41;;;21.72;93.57
6150;BME280;3106;42.670;23.318;2023-06-14T06:04:11;94270.13;;;21.60;92.35
6150;BME280;3106;42.670;23.318;2023-06-14T06:06:38;94270.31;;;21.73;92.87
6150;BME280;3106;42.670;23.318;2023-06-14T06:09:05;94269.41;;;21.56;92.29
6150;BME280;3106;42.670;23.318;2023-06-14T06:11:32;94269.19;;;20.98;93.08
6150;BME280;3106;42.670;23.318;2023-06-14T06:13:59;94271.31;;;20.84;93.68
6150;BME280;3106;42.670;23.318;2023-06-14T06:16:27;94278.75;;;20.76;94.64
6150;BME280;3106;42.670;23.318;2023-06-14T06:18:53;94280.56;;;20.90;95.53
6150;BME280;3106;42.670;23.318;2023-06-14T06:21:20;94282.06;;;20.94;95.95
6150;BME280;3106;42.670;23.318;2023-06-14T06:23:47;94276.94;;;20.70;96.91
6150;BME280;3106;42.670;23.318;2023-06-14T06:26:13;94279.03;;;20.25;99.99
6150;BME280;3106;42.670;23.318;2023-06-14T06:28:40;94282.31;;;20.10;100.00
6150;BME280;3106;42.670;23.318;2023-06-14T06:31:07;94283.22;;;19.96;100.00
6150;BME280;3106;42.670;23.318;2023-06-14T06:33:35;94286.19;;;19.72;100.00
6150;BME280;3106;42.670;23.318;2023-06-14T06:36:02;94286.22;;;19.69;100.00
6150;BME280;3106;42.670;23.318;2023-06-14T06:38:30;94283.84;;;19.74;100.00
6150;BME280;3106;42.670;23.318;2023-06-14T06:40:57;94275.63;;;19.81;100.00
6150;BME280;3106;42.670;23.318;2023-06-14T06:43:24;94288.84;;;20.16;100.00
6150;BME280;3106;42.670;23.318;2023-06-14T06:45:51;94293.06;;;20.20;100.00
6150;BME280;3106;42.670;23.318;2023-06-14T06:48:18;94285.16;;;20.33;99.81
6150;BME280;3106;42.670;23.318;2023-06-14T06:50:46;94292.78;;;20.45;99.74
6150;BME280;3106;42.670;23.318;2023-06-14T06:53:14;94294.91;;;20.60;99.22
6150;BME280;3106;42.670;23.318;2023-06-14T06:55:41;94297.59;;;20.64;98.66
6150;BME280;3106;42.670;23.318;2023-06-14T06:58:08;94291.53;;;20.83;98.69
6150;BME280;3106;42.670;23.318;2023-06-14T07:00:36;94286.41;;;20.88;98.24
6150;BME280;3106;42.670;23.318;2023-06-14T07:03:03;94277.19;;;20.82;97.67
6150;BME280;3106;42.670;23.318;2023-06-14T07:05:30;94291.50;;;20.86;98.38
6150;BME280;3106;42.670;23.318;2023-06-14T07:07:58;94296.31;;;21.02;97.12
6150;BME280;3106;42.670;23.318;2023-06-14T07:10:26;94296.34;;;21.74;97.02
6150;BME280;3106;42.670;23.318;2023-06-14T07:12:53;94294.22;;;23.21;89.52
6150;BME280;3106;42.670;23.318;2023-06-14T07:15:20;94286.41;;;23.55;85.54
6150;BME280;3106;42.670;23.318;2023-06-14T07:17:49;94289.19;;;23.67;84.77
6150;BME280;3106;42.670;23.318;2023-06-14T07:20:16;94282.19;;;23.98;82.44
6150;BME280;3106;42.670;23.318;2023-06-14T07:22:43;94287.44;;;24.21;81.98
6150;BME280;3106;42.670;23.318;2023-06-14T07:25:12;94294.13;;;24.89;76.89
6150;BME280;3106;42.670;23.318;2023-06-14T07:27:40;94294.50;;;25.29;73.96
6150;BME280;3106;42.670;23.318;2023-06-14T07:30:08;94286.78;;;24.86;75.15
6150;BME280;3106;42.670;23.318;2023-06-14T07:32:36;94290.97;;;25.03;74.48
6150;BME280;3106;42.670;23.318;2023-06-14T07:35:03;94287.66;;;24.83;73.61
6150;BME280;3106;42.670;23.318;2023-06-14T07:37:30;94286.81;;;24.99;72.76
6150;BME280;3106;42.670;23.318;2023-06-14T07:39:57;94288.06;;;24.69;74.36
6150;BME280;3106;42.670;23.318;2023-06-14T07:42:25;94283.44;;;24.26;76.65
6150;BME280;3106;42.670;23.318;2023-06-14T07:44:52;94276.94;;;24.20;77.52
6150;BME280;3106;42.670;23.318;2023-06-14T07:47:19;94289.00;;;24.51;75.60
6150;BME280;3106;42.670;23.318;2023-06-14T07:49:46;94282.50;;;24.85;73.15
6150;BME280;3106;42.670;23.318;2023-06-14T07:52:13;94296.44;;;25.03;70.74
6150;BME280;3106;42.670;23.318;2023-06-14T07:54:39;94302.19;;;25.46;70.61
6150;BME280;3106;42.670;23.318;2023-06-14T07:57:06;94301.94;;;25.66;66.77
6150;BME280;3106;42.670;23.318;2023-06-14T07:59:35;94304.03;;;25.62;66.85
6150;BME280;3106;42.670;23.318;2023-06-14T08:02:02;94300.28;;;25.68;66.08
6150;BME280;3106;42.670;23.318;2023-06-14T08:04:29;94306.19;;;25.79;67.79
6150;BME280;3106;42.670;23.318;2023-06-14T08:06:56;94303.13;;;25.77;68.07
6150;BME280;3106;42.670;23.318;2023-06-14T08:09:23;94311.22;;;26.06;66.48
6150;BME280;3106;42.670;23.318;2023-06-14T08:11:50;94310.53;;;26.14;64.70
6150;BME280;3106;42.670;23.318;2023-06-14T08:14:17;94316.34;;;26.16;64.37
6150;BME280;3106;42.670;23.318;2023-06-14T08:16:45;94318.63;;;26.18;65.29
6150;BME280;3106;42.670;23.318;2023-06-14T08:19:12;94318.91;;;26.32;63.25
6150;BME280;3106;42.670;23.318;2023-06-14T08:21:38;94314.53;;;26.34;63.59
6150;BME280;3106;42.670;23.318;2023-06-14T08:24:05;94330.94;;;26.13;63.81
6150;BME280;3106;42.670;23.318;2023-06-14T08:26:32;94323.97;;;25.62;63.90
6150;BME280;3106;42.670;23.318;2023-06-14T08:28:59;94325.19;;;25.36;66.37
6150;BME280;3106;42.670;23.318;2023-06-14T08:31:26;94319.09;;;25.04;68.08
6150;BME280;3106;42.670;23.318;2023-06-14T08:33:54;94323.75;;;24.78;70.79
6150;BME280;3106;42.670;23.318;2023-06-14T08:36:21;94315.94;;;24.65;71.40
6150;BME280;3106;42.670;23.318;2023-06-14T08:38:48;94323.94;;;24.71;72.31
6150;BME280;3106;42.670;23.318;2023-06-14T08:41:20;94317.63;;;24.46;71.93
6150;BME280;3106;42.670;23.318;2023-06-14T08:43:52;94304.97;;;24.36;72.87
6150;BME280;3106;42.670;23.318;2023-06-14T08:46:19;94309.56;;;24.27;71.68
6150;BME280;3106;42.670;23.318;2023-06-14T08:48:49;94306.31;;;24.16;71.60
6150;BME280;3106;42.670;23.318;2023-06-14T08:51:25;94306.47;;;24.81;70.86
6150;BME280;3106;42.670;23.318;2023-06-14T08:53:53;94307.91;;;24.29;70.00
6150;BME280;3106;42.670;23.318;2023-06-14T08:56:23;94303.91;;;24.18;71.42
6150;BME280;3106;42.670;23.318;2023-06-14T08:58:51;94305.44;;;24.19;71.50
6150;BME280;3106;42.670;23.318;2023-06-14T09:01:18;94309.03;;;24.32;70.53
6150;BME280;3106;42.670;23.318;2023-06-14T09:03:48;94291.97;;;24.28;70.98
6150;BME280;3106;42.670;23.318;2023-06-14T09:06:15;94306.22;;;24.64;69.31
6150;BME280;3106;42.670;23.318;2023-06-14T09:09:05;94311.50;;;24.95;67.45
6150;BME280;3106;42.670;23.318;2023-06-14T09:11:35;94305.56;;;25.25;66.93
6150;BME280;3106;42.670;23.318;2023-06-14T09:14:02;94298.22;;;25.22;66.47
6150;BME280;3106;42.670;23.318;2023-06-14T09:16:28;94302.56;;;25.07;66.96
6150;BME280;3106;42.670;23.318;2023-06-14T09:18:56;94293.03;;;25.12;66.04
6150;BME280;3106;42.670;23.318;2023-06-14T09:21:22;94293.72;;;25.03;65.98
6150;BME280;3106;42.670;23.318;2023-06-14T09:23:49;94298.72;;;25.05;66.36
6150;BME280;3106;42.670;23.318;2023-06-14T09:26:19;94304.13;;;25.08;65.56
6150;BME280;3106;42.670;23.318;2023-06-14T09:28:47;94301.84;;;25.32;64.74
6150;BME280;3106;42.670;23.318;2023-06-14T09:31:14;94302.81;;;25.63;63.68
6150;BME280;3106;42.670;23.318;2023-06-14T09:33:42;94301.28;;;25.62;62.93
6150;BME280;3106;42.670;23.318;2023-06-14T09:36:15;94306.00;;;25.61;62.27
6150;BME280;3106;42.670;23.318;2023-06-14T09:38:43;94294.03;;;25.80;61.93
6150;BME280;3106;42.670;23.318;2023-06-14T09:41:19;94287.13;;;26.01;62.67
6150;BME280;3106;42.670;23.318;2023-06-14T09:43:46;94282.06;;;26.33;61.87
6150;BME280;3106;42.670;23.318;2023-06-14T09:46:13;94286.84;;;26.20;61.80
6150;BME280;3106;42.670;23.318;2023-06-14T09:48:41;94284.91;;;26.08;61.91
6150;BME280;3106;42.670;23.318;2023-06-14T09:51:09;94279.13;;;25.81;63.29
6150;BME280;3106;42.670;23.318;2023-06-14T09:53:37;94280.56;;;25.73;63.97
6150;BME280;3106;42.670;23.318;2023-06-14T09:56:05;94273.44;;;25.88;62.48
6150;BME280;3106;42.670;23.318;2023-06-14T09:58:36;94283.28;;;25.86;61.99
6150;BME280;3106;42.670;23.318;2023-06-14T10:01:08;94273.66;;;25.94;61.10
6150;BME280;3106;42.670;23.318;2023-06-14T10:03:39;94270.09;;;26.06;60.79
6150;BME280;3106;42.670;23.318;2023-06-14T10:06:08;94266.75;;;26.57;59.18
6150;BME280;3106;42.670;23.318;2023-06-14T10:08:36;94271.00;;;26.79;58.40
6150;BME280;3106;42.670;23.318;2023-06-14T10:11:04;94260.28;;;26.72;58.00
6150;BME280;3106;42.670;23.318;2023-06-14T10:13:33;94255.97;;;26.62;59.75
6150;BME280;3106;42.670;23.318;2023-06-14T10:16:11;94257.00;;;26.86;58.88
6150;BME280;3106;42.670;23.318;2023-06-14T10:18:45;94261.19;;;27.21;58.24
6150;BME280;3106;42.670;23.318;2023-06-14T10:21:20;94248.59;;;27.42;56.69
6150;BME280;3106;42.670;23.318;2023-06-14T10:23:49;94256.69;;;27.45;56.75
6150;BME280;3106;42.670;23.318;2023-06-14T10:26:21;94249.22;;;27.46;53.94
6150;BME280;3106;42.670;23.318;2023-06-14T10:29:01;94251.63;;;27.35;55.39
6150;BME280;3106;42.670;23.318;2023-06-14T10:31:43;94255.97;;;26.93;56.50
6150;BME280;3106;42.670;23.318;2023-06-14T10:34:10;94245.88;;;26.81;56.79
6150;BME280;3106;42.670;23.318;2023-06-14T10:36:38;94256.97;;;26.77;55.94
6150;BME280;3106;42.670;23.318;2023-06-14T10:39:07;94251.09;;;26.45;56.59
6150;BME280;3106;42.670;23.318;2023-06-14T10:41:36;94243.41;;;26.40;56.52
6150;BME280;3106;42.670;23.318;2023-06-14T10:44:32;94247.59;;;26.66;56.95
6150;BME280;3106;42.670;23.318;2023-06-14T10:47:00;94240.41;;;26.90;56.03
6150;BME280;3106;42.670;23.318;2023-06-14T10:49:38;94245.78;;;26.29;57.27
6150;BME280;3106;42.670;23.318;2023-06-14T10:52:11;94243.50;;;26.27;58.29
6150;BME280;3106;42.670;23.318;2023-06-14T10:55:01;94246.75;;;26.78;56.42
6150;BME280;3106;42.670;23.318;2023-06-14T10:57:29;94238.47;;;26.69;55.37
6150;BME280;3106;42.670;23.318;2023-06-14T10:59:58;94224.53;;;26.85;55.25
6150;BME280;3106;42.670;23.318;2023-06-14T11:03:07;94218.50;;;26.99;54.99
6150;BME280;3106;42.670;23.318;2023-06-14T11:05:48;94219.03;;;27.55;53.39
6150;BME280;3106;42.670;23.318;2023-06-14T11:08:48;94221.28;;;27.08;54.54
6150;BME280;3106;42.670;23.318;2023-06-14T11:11:22;94227.50;;;26.69;54.92
6150;BME280;3106;42.670;23.318;2023-06-14T11:13:49;94216.78;;;26.62;55.75
6150;BME280;3106;42.670;23.318;2023-06-14T11:16:18;94211.03;;;26.69;56.04
6150;BME280;3106;42.670;23.318;2023-06-14T11:18:45;94209.72;;;26.82;55.97
6150;BME280;3106;42.670;23.318;2023-06-14T11:21:15;94205.75;;;26.74;56.67
6150;BME280;3106;42.670;23.318;2023-06-14T11:23:49;94209.19;;;26.44;55.86
6150;BME280;3106;42.670;23.318;2023-06-14T11:26:15;94204.38;;;25.93;57.04
6150;BME280;3106;42.670;23.318;2023-06-14T11:28:42;94198.06;;;25.84;57.16
6150;BME280;3106;42.670;23.318;2023-06-14T11:31:09;94200.78;;;25.84;58.65
6150;BME280;3106;42.670;23.318;2023-06-14T11:33:37;94197.25;;;25.96;58.36
6150;BME280;3106;42.670;23.318;2023-06-14T11:36:06;94209.75;;;26.18;58.49
6150;BME280;3106;42.670;23.318;2023-06-14T11:38:35;94198.44;;;26.50;56.64
6150;BME280;3106;42.670;23.318;2023-06-14T11:41:03;94198.28;;;26.53;56.33
6150;BME280;3106;42.670;23.318;2023-06-14T11:43:30;94203.66;;;26.57;54.69
6150;BME280;3106;42.670;23.318;2023-06-14T11:45:59;94195.38;;;26.78;55.30
6150;BME280;3106;42.670;23.318;2023-06-14T11:48:37;94184.00;;;26.89;53.63
6150;BME280;3106;42.670;23.318;2023-06-14T11:51:04;94185.81;;;27.13;54.14
6150;BME280;3106;42.670;23.318;2023-06-14T11:53:31;94184.69;;;27.41;54.43
6150;BME280;3106;42.670;23.318;2023-06-14T11:55:58;94184.78;;;27.77;53.26
6150;BME280;3106;42.670;23.318;2023-06-14T11:58:25;94171.94;;;27.83;51.98
6150;BME280;3106;42.670;23.318;2023-06-14T12:00:53;94172.25;;;27.94;51.29
6150;BME280;3106;42.670;23.318;2023-06-14T12:03:23;94162.03;;;27.94;50.82
6150;BME280;3106;42.670;23.318;2023-06-14T12:06:01;94165.47;;;27.59;51.44
6150;BME280;3106;42.670;23.318;2023-06-14T12:08:33;94167.41;;;27.41;51.69
6150;BME280;3106;42.670;23.318;2023-06-14T12:11:04;94160.06;;;26.89;52.24
6150;BME280;3106;42.670;23.318;2023-06-14T12:13:31;94159.91;;;26.53;53.30
6150;BME280;3106;42.670;23.318;2023-06-14T12:15:58;94153.78;;;26.28;54.32
6150;BME280;3106;42.670;23.318;2023-06-14T12:18:32;94151.88;;;26.37;54.93
6150;BME280;3106;42.670;23.318;2023-06-14T12:21:01;94151.59;;;26.44;54.29
6150;BME280;3106;42.670;23.318;2023-06-14T12:23:52;94151.09;;;26.89;52.71
6150;BME280;3106;42.670;23.318;2023-06-14T12:26:19;94151.34;;;27.12;53.30
6150;BME280;3106;42.670;23.318;2023-06-14T12:28:47;94151.06;;;27.19;51.57
6150;BME280;3106;42.670;23.318;2023-06-14T12:31:15;94146.47;;;27.25;52.12
6150;BME280;3106;42.670;23.318;2023-06-14T12:33:42;94148.50;;;27.34;51.57
6150;BME280;3106;42.670;23.318;2023-06-14T12:36:12;94142.09;;;27.28;51.96
6150;BME280;3106;42.670;23.318;2023-06-14T12:38:39;94141.91;;;27.22;51.54
6150;BME280;3106;42.670;23.318;2023-06-14T12:41:05;94139.94;;;27.23;52.09
6150;BME280;3106;42.670;23.318;2023-06-14T12:43:32;94135.88;;;27.06;53.05
6150;BME280;3106;42.670;23.318;2023-06-14T12:45:59;94125.78;;;26.94;54.07
6150;BME280;3106;42.670;23.318;2023-06-14T12:48:26;94136.47;;;26.92;54.70
6150;BME280;3106;42.670;23.318;2023-06-14T12:50:55;94128.38;;;26.97;55.90
6150;BME280;3106;42.670;23.318;2023-06-14T12:53:23;94126.66;;;26.82;55.66
6150;BME280;3106;42.670;23.318;2023-06-14T12:55:50;94120.22;;;26.76;55.70
6150;BME280;3106;42.670;23.318;2023-06-14T12:58:17;94122.94;;;26.67;55.21
6150;BME280;3106;42.670;23.318;2023-06-14T13:00:45;94131.44;;;26.60;55.87
6150;BME280;3106;42.670;23.318;2023-06-14T13:03:11;94124.50;;;26.77;56.03
6150;BME280;3106;42.670;23.318;2023-06-14T13:05:38;94121.50;;;26.84;55.09
6150;BME280;3106;42.670;23.318;2023-06-14T13:08:06;94130.66;;;26.90;56.48
6150;BME280;3106;42.670;23.318;2023-06-14T13:10:35;94121.53;;;26.93;57.15
6150;BME280;3106;42.670;23.318;2023-06-14T13:13:02;94117.97;;;26.83;58.41
6150;BME280;3106;42.670;23.318;2023-06-14T13:15:29;94130.28;;;26.79;59.01